createdAt,value
2019-02-17T00:00:54.153Z,41.93
2019-02-17T00:03:22.918Z,39.17
2019-02-17T00:05:51.573Z,32.90
2019-02-17T00:08:20.314Z,36.90
2019-02-17T00:10:49.050Z,33.27
2019-02-17T00:13:17.786Z,40.93
2019-02-17T00:15:46.453Z,38.67
2019-02-17T00:18:15.134Z,37.90
2019-02-17T00:20:43.876Z,37.27
2019-02-17T00:23:12.531Z,35.17
2019-02-17T00:25:41.152Z,38.77
2019-02-17T00:28:09.894Z,36.43
2019-02-17T00:30:38.558Z,34.13
2019-02-17T00:33:07.339Z,33.27
2019-02-17T00:35:36.080Z,27.57
2019-02-17T00:38:05.063Z,30.27
2019-02-17T00:40:33.788Z,30.40
2019-02-17T00:43:02.560Z,31.63
2019-02-17T00:45:31.145Z,34.40
2019-02-17T00:47:59.821Z,34.53
2019-02-17T00:50:28.428Z,35.67
2019-02-17T00:52:57.046Z,35.63
2019-02-17T00:55:25.798Z,39.10
2019-02-17T00:57:54.488Z,36.23
2019-02-17T01:00:23.231Z,34.57
2019-02-17T01:02:51.900Z,31.77
2019-02-17T01:05:20.641Z,34.53
2019-02-17T01:07:49.378Z,37.43
2019-02-17T01:10:18.185Z,33.60
2019-02-17T01:12:46.800Z,31.57
2019-02-17T01:15:15.467Z,32.30
2019-02-17T01:17:44.217Z,38.33
2019-02-17T01:20:12.948Z,33.97
2019-02-17T01:22:41.641Z,32.97
2019-02-17T01:25:10.848Z,34.77
2019-02-17T01:27:39.571Z,36.60
2019-02-17T01:30:15.492Z,32.97
2019-02-17T01:32:44.249Z,33.83
2019-02-17T01:35:13.023Z,33.90
2019-02-17T01:37:41.647Z,30.23
2019-02-17T01:40:10.554Z,33.30
2019-02-17T01:42:39.251Z,31.83
2019-02-17T01:45:09.750Z,29.90
2019-02-17T01:47:38.556Z,34.20
2019-02-17T01:50:09.121Z,32.60
2019-02-17T01:52:37.928Z,35.67
2019-02-17T01:55:08.234Z,36.60
2019-02-17T01:57:36.990Z,35.37
2019-02-17T02:00:14.271Z,33.50
2019-02-17T02:02:43.091Z,33.37
2019-02-17T02:05:11.904Z,36.10
2019-02-17T02:07:40.520Z,37.37
2019-02-17T02:10:10.475Z,34.70
2019-02-17T02:12:39.225Z,33.47
2019-02-17T02:15:12.220Z,37.47
2019-02-17T02:17:40.914Z,39.23
2019-02-17T02:20:11.820Z,36.03
2019-02-17T02:22:40.492Z,42.37
2019-02-17T02:25:09.244Z,39.77
2019-02-17T02:27:37.944Z,38.93
2019-02-17T02:30:09.727Z,43.73
2019-02-17T02:32:38.463Z,40.57
2019-02-17T02:35:07.283Z,41.97
2019-02-17T02:37:35.975Z,47.77
2019-02-17T02:40:05.171Z,41.97
2019-02-17T02:42:33.792Z,40.53
2019-02-17T02:45:02.489Z,41.27
2019-02-17T02:47:31.107Z,37.30
2019-02-17T02:49:59.794Z,41.87
2019-02-17T02:52:28.544Z,40.77
2019-02-17T02:54:57.163Z,43.80
2019-02-17T02:57:25.833Z,40.43
2019-02-17T02:59:54.447Z,38.20
2019-02-17T03:02:23.176Z,43.27
2019-02-17T03:04:51.847Z,37.73
2019-02-17T03:07:20.535Z,40.37
2019-02-17T03:09:49.201Z,37.77
2019-02-17T03:12:17.891Z,36.00
2019-02-17T03:14:46.624Z,33.07
2019-02-17T03:17:15.316Z,35.43
2019-02-17T03:19:44.068Z,30.97
2019-02-17T03:22:12.753Z,34.70
2019-02-17T03:24:41.427Z,33.27
2019-02-17T03:27:10.203Z,35.70
2019-02-17T03:29:38.939Z,34.03
2019-02-17T03:32:07.719Z,34.70
2019-02-17T03:34:36.359Z,36.90
2019-02-17T03:37:05.060Z,32.87
2019-02-17T03:39:33.746Z,32.90
2019-02-17T03:42:02.742Z,34.43
2019-02-17T03:44:31.428Z,31.80
2019-02-17T03:47:00.111Z,35.77
2019-02-17T03:49:28.804Z,33.07
2019-02-17T03:51:57.427Z,32.33
2019-02-17T03:54:26.106Z,32.90
2019-02-17T03:56:54.794Z,32.10
2019-02-17T03:59:23.507Z,35.33
2019-02-17T04:01:52.156Z,35.53
2019-02-17T04:04:20.899Z,33.90
2019-02-17T04:06:49.566Z,34.83
2019-02-17T04:09:18.256Z,36.93
2019-02-17T04:11:47.010Z,36.37
2019-02-17T04:14:15.631Z,41.60
2019-02-17T04:16:44.380Z,37.63
2019-02-17T04:19:13.117Z,36.30
2019-02-17T04:21:41.734Z,32.70
2019-02-17T04:24:10.405Z,37.93
2019-02-17T04:26:39.025Z,34.40
2019-02-17T04:29:10.209Z,35.40
2019-02-17T04:31:38.031Z,35.20
2019-02-17T04:34:06.773Z,33.97
2019-02-17T04:36:35.462Z,32.23
2019-02-17T04:39:05.264Z,36.10
2019-02-17T04:41:34.014Z,32.77
2019-02-17T04:44:02.698Z,38.93
2019-02-17T04:46:31.366Z,30.83
2019-02-17T04:49:00.172Z,32.53
2019-02-17T04:51:28.859Z,31.23
2019-02-17T04:53:57.592Z,35.13
2019-02-17T04:56:26.284Z,31.43
2019-02-17T04:58:54.963Z,30.07
2019-02-17T05:01:23.588Z,29.90
2019-02-17T05:03:52.311Z,32.53
2019-02-17T05:06:20.954Z,31.67
2019-02-17T05:08:49.733Z,29.57
2019-02-17T05:11:18.349Z,31.00
2019-02-17T05:13:47.030Z,29.53
2019-02-17T05:16:15.643Z,33.87
2019-02-17T05:18:44.320Z,36.67
2019-02-17T05:21:12.990Z,33.47
2019-02-17T05:23:41.658Z,28.60
2019-02-17T05:26:10.347Z,30.60
2019-02-17T05:28:38.973Z,31.93
2019-02-17T05:31:07.723Z,29.97
2019-02-17T05:33:36.404Z,31.57
2019-02-17T05:36:05.163Z,30.93
2019-02-17T05:38:33.779Z,32.37
2019-02-17T05:41:02.520Z,32.10
2019-02-17T05:43:31.148Z,31.60
2019-02-17T05:45:59.896Z,32.03
2019-02-17T05:48:29.477Z,29.80
2019-02-17T05:50:58.171Z,31.37
2019-02-17T05:53:26.844Z,32.50
2019-02-17T05:55:55.465Z,33.10
2019-02-17T05:58:24.126Z,32.53
2019-02-17T06:01:03.035Z,29.77
2019-02-17T06:03:23.078Z,30.20
2019-02-17T06:05:51.806Z,32.17
2019-02-17T06:08:20.487Z,31.80
2019-02-17T06:10:49.164Z,29.83
2019-02-17T06:13:17.864Z,30.50
2019-02-17T06:15:46.608Z,28.90
2019-02-17T06:18:15.295Z,34.27
2019-02-17T06:20:43.988Z,31.23
2019-02-17T06:23:12.602Z,30.80
2019-02-17T06:25:41.228Z,27.60
2019-02-17T06:28:09.975Z,31.63
2019-02-17T06:30:38.641Z,28.03
2019-02-17T06:33:07.320Z,29.53
2019-02-17T06:35:36.012Z,30.23
2019-02-17T06:38:04.637Z,27.03
2019-02-17T06:40:33.307Z,26.70
2019-02-17T06:43:02.006Z,25.13
2019-02-17T06:45:30.705Z,28.53
2019-02-17T06:47:59.362Z,28.23
2019-02-17T06:50:28.090Z,27.17
2019-02-17T06:52:56.771Z,28.97
2019-02-17T06:55:33.288Z,31.00
2019-02-17T06:58:01.924Z,30.50
2019-02-17T07:00:32.232Z,28.70
2019-02-17T07:03:00.959Z,30.53
2019-02-17T07:05:36.961Z,28.07
2019-02-17T07:08:05.685Z,28.63
2019-02-17T07:10:34.292Z,26.30
2019-02-17T07:13:03.040Z,26.63
2019-02-17T07:15:31.731Z,24.70
2019-02-17T07:18:00.368Z,25.23
2019-02-17T07:20:29.019Z,27.33
2019-02-17T07:22:57.765Z,24.73
2019-02-17T07:25:30.049Z,23.60
2019-02-17T07:27:56.699Z,26.93
2019-02-17T07:30:25.435Z,24.13
2019-02-17T07:32:54.072Z,27.13
2019-02-17T07:35:22.740Z,23.90
2019-02-17T07:37:51.344Z,27.80
2019-02-17T07:40:20.007Z,24.63
2019-02-17T07:42:48.703Z,23.53
2019-02-17T07:45:17.550Z,25.00
2019-02-17T07:47:46.329Z,27.93
2019-02-17T07:50:14.984Z,24.80
2019-02-17T07:52:43.737Z,25.40
2019-02-17T07:55:12.761Z,25.77
2019-02-17T07:57:48.834Z,25.73
2019-02-17T08:00:17.552Z,25.30
2019-02-17T08:02:46.376Z,22.40
2019-02-17T08:05:15.147Z,22.60
2019-02-17T08:07:43.904Z,23.20
2019-02-17T08:10:12.657Z,23.10
2019-02-17T08:12:41.413Z,21.60
2019-02-17T08:15:10.955Z,23.23
2019-02-17T08:17:39.761Z,20.80
2019-02-17T08:20:10.714Z,20.50
2019-02-17T08:22:39.451Z,19.73
2019-02-17T08:25:08.802Z,23.60
2019-02-17T08:27:37.488Z,20.77
2019-02-17T08:30:09.359Z,20.03
2019-02-17T08:32:38.100Z,19.73
2019-02-17T08:35:08.674Z,19.70
2019-02-17T08:37:37.287Z,20.40
2019-02-17T08:40:08.559Z,19.60
2019-02-17T08:42:37.178Z,19.63
2019-02-17T08:45:08.185Z,17.57
2019-02-17T08:47:36.872Z,16.97
2019-02-17T08:50:08.993Z,16.90
2019-02-17T08:52:37.771Z,17.63
2019-02-17T08:55:09.083Z,16.77
2019-02-17T08:57:38.163Z,17.93
2019-02-17T09:00:12.607Z,19.23
2019-02-17T09:02:41.221Z,19.83
2019-02-17T09:05:10.036Z,18.47
2019-02-17T09:07:38.855Z,17.83
2019-02-17T09:10:11.019Z,18.70
2019-02-17T09:12:39.759Z,17.93
2019-02-17T09:15:11.088Z,17.40
2019-02-17T09:17:39.830Z,16.73
2019-02-17T09:20:10.451Z,17.77
2019-02-17T09:22:39.208Z,18.70
2019-02-17T09:25:10.270Z,18.47
2019-02-17T09:27:39.033Z,17.83
2019-02-17T09:30:13.493Z,18.07
2019-02-17T09:32:42.167Z,22.60
2019-02-17T09:35:10.854Z,22.63
2019-02-17T09:37:39.528Z,21.03
2019-02-17T09:40:10.591Z,19.83
2019-02-17T09:42:39.274Z,20.60
2019-02-17T09:45:13.444Z,19.43
2019-02-17T09:47:42.150Z,19.47
2019-02-17T09:50:12.696Z,18.60
2019-02-17T09:52:41.440Z,18.80
2019-02-17T09:55:11.093Z,18.60
2019-02-17T09:57:39.966Z,19.33
2019-02-17T10:00:16.080Z,19.17
2019-02-17T10:02:44.731Z,20.43
2019-02-17T10:05:13.895Z,19.20
2019-02-17T10:07:42.657Z,20.60
2019-02-17T10:10:16.141Z,22.20
2019-02-17T10:12:44.829Z,22.33
2019-02-17T10:15:14.241Z,24.87
2019-02-17T10:17:42.928Z,21.70
2019-02-17T10:20:15.848Z,22.37
2019-02-17T10:22:44.610Z,22.30
2019-02-17T10:25:13.409Z,19.80
2019-02-17T10:27:42.027Z,21.87
2019-02-17T10:30:13.813Z,21.67
2019-02-17T10:32:42.439Z,22.20
2019-02-17T10:35:11.456Z,21.07
2019-02-17T10:37:40.066Z,22.03
2019-02-17T10:40:11.849Z,22.07
2019-02-17T10:42:40.547Z,20.60
2019-02-17T10:45:10.559Z,22.70
2019-02-17T10:47:39.292Z,22.07
2019-02-17T10:50:10.422Z,21.07
2019-02-17T10:52:39.215Z,22.90
2019-02-17T10:55:10.600Z,23.33
2019-02-17T10:57:39.280Z,21.83
2019-02-17T11:00:16.779Z,21.93
2019-02-17T11:02:47.416Z,21.43
2019-02-17T11:05:16.301Z,25.00
2019-02-17T11:07:45.016Z,22.03
2019-02-17T11:10:14.411Z,20.63
2019-02-17T11:12:43.169Z,22.03
2019-02-17T11:15:15.246Z,22.00
2019-02-17T11:17:43.988Z,22.33
2019-02-17T11:20:12.681Z,20.83
2019-02-17T11:22:41.487Z,21.50
2019-02-17T11:25:10.243Z,23.07
2019-02-17T11:27:38.985Z,22.80
2019-02-17T11:30:13.456Z,21.90
2019-02-17T11:32:42.105Z,24.07
2019-02-17T11:35:11.205Z,24.10
2019-02-17T11:37:39.923Z,21.90
2019-02-17T11:40:10.846Z,23.80
2019-02-17T11:42:39.595Z,21.70
2019-02-17T11:45:11.582Z,23.63
2019-02-17T11:47:40.506Z,21.43
2019-02-17T11:50:09.828Z,24.27
2019-02-17T11:52:38.581Z,23.77
2019-02-17T11:55:13.015Z,25.20
2019-02-17T11:57:41.929Z,26.30
2019-02-17T12:00:13.828Z,20.73
2019-02-17T12:02:42.448Z,18.83
2019-02-17T12:05:11.798Z,19.50
2019-02-17T12:07:40.416Z,21.17
2019-02-17T12:10:10.984Z,20.63
2019-02-17T12:12:40.107Z,21.57
2019-02-17T12:15:13.399Z,27.67
2019-02-17T12:17:42.092Z,21.40
2019-02-17T12:20:30.368Z,39.43
2019-02-17T12:23:01.644Z,60.50
2019-02-17T12:25:31.944Z,63.53
2019-02-17T12:28:05.174Z,47.23
2019-02-17T12:30:33.911Z,44.37
2019-02-17T12:33:02.674Z,33.97
2019-02-17T12:35:31.348Z,42.07
2019-02-17T12:38:00.040Z,31.33
2019-02-17T12:40:29.088Z,22.70
2019-02-17T12:42:57.674Z,22.10
2019-02-17T12:45:26.335Z,20.20
2019-02-17T12:47:57.854Z,19.27
2019-02-17T12:50:25.284Z,20.13
2019-02-17T12:52:54.008Z,18.60
2019-02-17T12:55:22.688Z,22.83
2019-02-17T12:57:51.319Z,17.83
2019-02-17T13:00:20.120Z,17.17
2019-02-17T13:02:48.734Z,17.93
2019-02-17T13:05:17.554Z,17.17
2019-02-17T13:07:46.176Z,20.00
2019-02-17T13:10:14.871Z,16.97
2019-02-17T13:12:43.623Z,16.33
2019-02-17T13:15:13.475Z,19.33
2019-02-17T13:17:42.147Z,17.27
2019-02-17T13:20:13.102Z,17.63
2019-02-17T13:22:41.748Z,15.50
2019-02-17T13:25:13.490Z,16.67
2019-02-17T13:27:42.291Z,17.53
2019-02-17T13:30:20.082Z,16.07
2019-02-17T13:32:48.742Z,16.40
2019-02-17T13:35:17.438Z,14.43
2019-02-17T13:37:46.114Z,13.07
2019-02-17T13:40:14.966Z,15.50
2019-02-17T13:42:43.719Z,13.87
2019-02-17T13:45:14.035Z,14.60
2019-02-17T13:47:42.725Z,14.13
2019-02-17T13:50:13.389Z,14.83
2019-02-17T13:52:43.072Z,15.00
2019-02-17T13:55:11.973Z,15.43
2019-02-17T13:57:40.745Z,14.20
2019-02-17T14:00:19.623Z,18.70
2019-02-17T14:02:48.365Z,12.13
2019-02-17T14:05:17.158Z,12.63
2019-02-17T14:07:46.069Z,12.30
2019-02-17T14:10:15.274Z,14.23
2019-02-17T14:12:43.947Z,13.17
2019-02-17T14:15:32.065Z,13.40
2019-02-17T14:18:00.699Z,11.53
2019-02-17T14:20:29.366Z,12.67
2019-02-17T14:22:58.053Z,14.53
2019-02-17T14:25:26.856Z,14.73
2019-02-17T14:27:55.650Z,13.20
2019-02-17T14:30:24.312Z,11.80
2019-02-17T14:32:52.977Z,14.40
2019-02-17T14:35:21.659Z,14.33
2019-02-17T14:37:50.314Z,12.83
2019-02-17T14:40:19.074Z,12.33
2019-02-17T14:42:47.742Z,13.50
2019-02-17T14:45:17.433Z,14.03
2019-02-17T14:47:46.174Z,13.90
2019-02-17T14:50:15.003Z,13.90
2019-02-17T14:52:43.667Z,15.27
2019-02-17T14:55:12.995Z,14.83
2019-02-17T14:57:41.613Z,15.47
2019-02-17T15:00:15.609Z,11.53
2019-02-17T15:02:44.431Z,12.03
2019-02-17T15:05:13.040Z,12.00
2019-02-17T15:07:41.817Z,13.20
2019-02-17T15:10:12.056Z,11.93
2019-02-17T15:12:40.851Z,13.30
2019-02-17T15:15:14.667Z,11.77
2019-02-17T15:17:43.277Z,12.37
2019-02-17T15:20:14.707Z,11.70
2019-02-17T15:22:43.352Z,12.53
2019-02-17T15:25:12.564Z,10.77
2019-02-17T15:27:41.255Z,11.40
2019-02-17T15:30:12.913Z,15.13
2019-02-17T15:32:41.641Z,13.00
2019-02-17T15:35:10.396Z,11.67
2019-02-17T15:37:39.213Z,11.17
2019-02-17T15:40:10.752Z,10.83
2019-02-17T15:42:39.568Z,12.07
2019-02-17T15:45:10.732Z,12.50
2019-02-17T15:47:39.480Z,11.40
2019-02-17T15:50:10.159Z,11.83
2019-02-17T15:52:38.865Z,12.93
2019-02-17T15:55:12.183Z,11.93
2019-02-17T15:57:40.936Z,14.00
2019-02-17T16:00:12.763Z,11.73
2019-02-17T16:02:41.455Z,13.33
2019-02-17T16:05:10.441Z,11.67
2019-02-17T16:07:39.257Z,13.90
2019-02-17T16:10:12.584Z,12.00
2019-02-17T16:12:41.240Z,13.60
2019-02-17T16:15:12.980Z,12.67
2019-02-17T16:17:41.664Z,11.30
2019-02-17T16:20:12.671Z,11.97
2019-02-17T16:22:41.424Z,11.87
2019-02-17T16:25:11.282Z,10.60
2019-02-17T16:27:39.938Z,12.87
2019-02-17T16:30:16.532Z,12.43
2019-02-17T16:32:45.197Z,11.63
2019-02-17T16:35:13.948Z,11.43
2019-02-17T16:37:42.620Z,10.73
2019-02-17T16:40:16.524Z,13.37
2019-02-17T16:42:45.207Z,14.33
2019-02-17T16:45:14.845Z,10.57
2019-02-17T16:47:44.283Z,9.33
2019-02-17T16:50:21.326Z,10.30
2019-02-17T16:52:50.028Z,12.60
2019-02-17T16:55:18.918Z,11.57
2019-02-17T16:57:48.029Z,12.00
2019-02-17T17:00:23.797Z,16.47
2019-02-17T17:02:53.488Z,11.40
2019-02-17T17:05:23.249Z,13.90
2019-02-17T17:07:52.051Z,12.47
2019-02-17T17:10:20.993Z,13.93
2019-02-17T17:12:49.733Z,15.23
2019-02-17T17:15:18.688Z,12.13
2019-02-17T17:17:47.433Z,13.53
2019-02-17T17:20:17.892Z,11.43
2019-02-17T17:22:46.631Z,12.33
2019-02-17T17:25:15.740Z,10.47
2019-02-17T17:27:44.647Z,11.50
2019-02-17T17:30:15.769Z,11.60
2019-02-17T17:32:44.600Z,9.30
2019-02-17T17:35:13.582Z,7.03
2019-02-17T17:37:42.386Z,8.40
2019-02-17T17:40:15.787Z,10.00
2019-02-17T17:42:44.467Z,9.67
2019-02-17T17:45:20.882Z,10.33
2019-02-17T17:47:49.641Z,12.40
2019-02-17T17:50:18.559Z,12.57
2019-02-17T17:52:47.375Z,13.70
2019-02-17T17:55:16.061Z,11.47
2019-02-17T17:57:44.736Z,12.50
2019-02-17T18:00:16.779Z,11.90
2019-02-17T18:02:45.390Z,12.63
2019-02-17T18:05:14.511Z,14.83
2019-02-17T18:07:43.255Z,13.17
2019-02-17T18:10:16.456Z,13.87
2019-02-17T18:12:45.265Z,12.47
2019-02-17T18:15:15.929Z,15.80
2019-02-17T18:17:53.966Z,14.40
2019-02-17T18:20:15.193Z,13.93
2019-02-17T18:22:43.995Z,13.43
2019-02-17T18:25:14.361Z,11.93
2019-02-17T18:27:43.228Z,11.33
2019-02-17T18:30:17.231Z,13.03
2019-02-17T18:32:46.070Z,12.70
2019-02-17T18:35:19.763Z,10.87
2019-02-17T18:37:45.299Z,12.60
2019-02-17T18:40:17.919Z,12.53
2019-02-17T18:42:46.653Z,11.43
2019-02-17T18:45:16.410Z,11.23
2019-02-17T18:47:45.225Z,10.47
2019-02-17T18:50:15.280Z,12.23
2019-02-17T18:52:44.093Z,11.93
2019-02-17T18:55:13.553Z,12.63
2019-02-17T18:57:49.436Z,12.17
2019-02-17T19:00:26.652Z,11.47
2019-02-17T19:02:55.344Z,11.27
2019-02-17T19:05:31.679Z,10.77
2019-02-17T19:07:54.471Z,12.20
2019-02-17T19:10:23.137Z,11.27
2019-02-17T19:12:51.822Z,9.80
2019-02-17T19:15:23.523Z,11.70
2019-02-17T19:17:53.132Z,12.40
2019-02-17T19:20:33.743Z,10.40
2019-02-17T19:23:02.659Z,11.20
2019-02-17T19:25:31.280Z,12.70
2019-02-17T19:28:00.269Z,11.33
2019-02-17T19:30:28.911Z,11.63
2019-02-17T19:32:57.562Z,12.97
2019-02-17T19:35:26.223Z,11.63
2019-02-17T19:37:54.891Z,11.13
2019-02-17T19:40:23.701Z,10.07
2019-02-17T19:42:52.320Z,11.07
2019-02-17T19:45:21.079Z,11.27
2019-02-17T19:47:50.207Z,11.03
2019-02-17T19:50:18.854Z,11.07
2019-02-17T19:52:47.542Z,11.53
2019-02-17T19:55:16.301Z,9.73
2019-02-17T19:57:45.209Z,9.33
2019-02-17T20:00:16.199Z,10.40
2019-02-17T20:03:03.399Z,10.17
2019-02-17T20:05:51.338Z,10.53
2019-02-17T20:08:13.334Z,10.87
2019-02-17T20:10:41.943Z,12.03
2019-02-17T20:13:10.570Z,14.33
2019-02-17T20:15:39.365Z,11.60
2019-02-17T20:18:08.173Z,12.23
2019-02-17T20:20:36.848Z,10.60
2019-02-17T20:23:05.661Z,11.43
2019-02-17T20:25:34.278Z,10.73
2019-02-17T20:28:03.023Z,11.70
2019-02-17T20:30:32.041Z,10.63
2019-02-17T20:33:00.882Z,11.43
2019-02-17T20:35:29.591Z,13.70
2019-02-17T20:37:58.403Z,11.57
2019-02-17T20:40:27.135Z,11.83
2019-02-17T20:42:55.739Z,11.60
2019-02-17T20:45:24.484Z,12.53
2019-02-17T20:47:53.151Z,12.20
2019-02-17T20:50:22.104Z,10.13
2019-02-17T20:52:50.716Z,11.50
2019-02-17T20:55:19.383Z,11.77
2019-02-17T20:57:48.123Z,11.93
2019-02-17T21:00:23.003Z,10.93
2019-02-17T21:02:51.775Z,10.83
2019-02-17T21:05:20.501Z,12.20
2019-02-17T21:07:50.659Z,11.53
2019-02-17T21:10:19.463Z,12.57
2019-02-17T21:12:48.453Z,11.00
2019-02-17T21:15:19.222Z,10.50
2019-02-17T21:17:47.852Z,11.00
2019-02-17T21:20:17.877Z,11.10
2019-02-17T21:22:48.009Z,10.97
2019-02-17T21:25:17.066Z,11.13
2019-02-17T21:27:45.943Z,11.00
2019-02-17T21:30:17.281Z,10.83
2019-02-17T21:32:46.579Z,13.20
2019-02-17T21:35:37.916Z,11.53
2019-02-17T21:38:06.965Z,11.53
2019-02-17T21:40:37.722Z,11.93
2019-02-17T21:43:06.707Z,11.67
2019-02-17T21:45:35.671Z,11.60
2019-02-17T21:48:04.800Z,11.57
2019-02-17T21:50:34.986Z,12.77
2019-02-17T21:53:04.010Z,12.00
2019-02-17T21:55:33.120Z,12.53
2019-02-17T21:58:01.962Z,12.27
2019-02-17T22:00:31.111Z,12.87
2019-02-17T22:02:59.856Z,14.27
2019-02-17T22:05:28.591Z,12.27
2019-02-17T22:07:57.208Z,13.03
2019-02-17T22:10:25.855Z,12.63
2019-02-17T22:12:54.522Z,11.40
2019-02-17T22:15:24.741Z,12.80
2019-02-17T22:17:53.494Z,12.63
2019-02-17T22:20:22.250Z,13.67
2019-02-17T22:22:51.287Z,15.43
2019-02-17T22:25:20.068Z,14.53
2019-02-17T22:27:48.773Z,13.73
2019-02-17T22:30:17.485Z,13.27
2019-02-17T22:32:46.233Z,11.23
2019-02-17T22:35:15.564Z,12.77
2019-02-17T22:37:44.247Z,12.80
2019-02-17T22:40:15.280Z,13.53
2019-02-17T22:42:44.084Z,13.67
2019-02-17T22:45:13.840Z,12.63
2019-02-17T22:47:42.595Z,10.53
2019-02-17T22:50:15.459Z,13.30
2019-02-17T22:52:45.325Z,13.80
2019-02-17T22:55:14.725Z,13.80
2019-02-17T22:57:43.475Z,15.10
2019-02-17T23:00:18.067Z,13.27
2019-02-17T23:02:46.942Z,12.33
2019-02-17T23:05:15.602Z,12.33
2019-02-17T23:07:44.351Z,12.70
2019-02-17T23:10:13.243Z,12.33
2019-02-17T23:12:41.903Z,12.30
2019-02-17T23:15:10.718Z,13.77
2019-02-17T23:17:39.439Z,14.40
2019-02-17T23:20:08.682Z,14.87
2019-02-17T23:22:37.621Z,12.43
2019-02-17T23:25:09.171Z,11.73
2019-02-17T23:27:38.065Z,12.10
2019-02-17T23:30:09.160Z,13.33
2019-02-17T23:32:37.953Z,13.03
2019-02-17T23:35:07.013Z,12.27
2019-02-17T23:37:35.749Z,12.57
2019-02-17T23:47:44.049Z,13.77
2019-02-17T23:50:14.114Z,10.13
2019-02-17T23:52:43.171Z,12.53
2019-02-17T23:55:13.106Z,12.63
2019-02-17T23:57:42.662Z,12.37
